createdAt,value
2018-07-21T00:01:47.947Z,95112.00
2018-07-21T00:04:18.872Z,95108.00
2018-07-21T00:06:50.326Z,95110.00
2018-07-21T00:09:21.354Z,95109.00
2018-07-21T00:11:52.620Z,95112.00
2018-07-21T00:14:23.629Z,95113.00
2018-07-21T00:16:54.722Z,95109.00
2018-07-21T00:22:29.540Z,95105.00
2018-07-21T00:25:00.390Z,95111.00
2018-07-21T00:27:31.590Z,95113.00
2018-07-21T00:30:02.895Z,95107.00
2018-07-21T00:32:34.113Z,95111.00
2018-07-21T00:35:05.480Z,95116.00
2018-07-21T00:37:36.362Z,95116.00
2018-07-21T00:40:12.107Z,95109.00
2018-07-21T00:42:43.106Z,95110.00
2018-07-21T00:45:14.240Z,95107.00
2018-07-21T00:47:46.166Z,95108.00
2018-07-21T00:50:17.180Z,95105.00
2018-07-21T00:52:48.143Z,95112.00
2018-07-21T00:55:19.158Z,95113.00
2018-07-21T00:57:50.123Z,95114.00
2018-07-21T01:00:21.130Z,95108.00
2018-07-21T01:02:52.282Z,95103.00
2018-07-21T01:05:23.810Z,95094.00
2018-07-21T01:07:54.967Z,95095.00
2018-07-21T01:10:26.505Z,95102.00
2018-07-21T01:12:57.567Z,95103.00
2018-07-21T01:15:28.913Z,95103.00
2018-07-21T01:17:59.819Z,95112.00
2018-07-21T01:20:31.331Z,95105.00
2018-07-21T01:23:03.282Z,95105.00
2018-07-21T01:25:37.485Z,95096.00
2018-07-21T01:28:10.037Z,95096.00
2018-07-21T01:30:41.058Z,95092.00
2018-07-21T01:33:12.911Z,95091.00
2018-07-21T01:35:43.946Z,95090.00
2018-07-21T01:38:15.188Z,95077.00
2018-07-21T01:40:46.251Z,95082.00
2018-07-21T01:43:17.408Z,95088.00
2018-07-21T01:45:48.411Z,95090.00
2018-07-21T01:48:19.351Z,95080.00
2018-07-21T01:50:50.270Z,95077.00
2018-07-21T01:53:25.870Z,95079.00
2018-07-21T01:55:57.352Z,95071.00
2018-07-21T01:58:28.426Z,95075.00
2018-07-21T02:00:59.572Z,95078.00
2018-07-21T02:03:30.855Z,95079.00
2018-07-21T02:06:01.854Z,95080.00
2018-07-21T02:08:34.291Z,95074.00
2018-07-21T02:11:05.639Z,95076.00
2018-07-21T02:13:37.676Z,95086.00
2018-07-21T02:16:10.116Z,95086.00
2018-07-21T02:18:41.105Z,95090.00
2018-07-21T02:21:12.150Z,95093.00
2018-07-21T02:23:43.524Z,95092.00
2018-07-21T02:26:14.538Z,95092.00
2018-07-21T02:28:45.732Z,95088.00
2018-07-21T02:31:16.604Z,95090.00
2018-07-21T02:33:47.670Z,95082.00
2018-07-21T02:36:19.081Z,95080.00
2018-07-21T02:38:50.150Z,95081.00
2018-07-21T02:41:21.468Z,95079.00
2018-07-21T02:43:52.375Z,95077.00
2018-07-21T02:46:23.400Z,95070.00
2018-07-21T02:48:54.409Z,95069.00
2018-07-21T02:51:25.510Z,95070.00
2018-07-21T02:53:56.563Z,95070.00
2018-07-21T02:56:27.527Z,95071.00
2018-07-21T02:58:58.566Z,95071.00
2018-07-21T03:01:29.500Z,95073.00
2018-07-21T03:04:00.543Z,95074.00
2018-07-21T03:06:31.507Z,95072.00
2018-07-21T03:09:02.685Z,95076.00
2018-07-21T03:11:33.643Z,95076.00
2018-07-21T03:14:04.691Z,95076.00
2018-07-21T03:16:35.630Z,95084.00
2018-07-21T03:19:06.456Z,95078.00
2018-07-21T03:21:37.403Z,95075.00
2018-07-21T03:24:08.363Z,95071.00
2018-07-21T03:26:39.303Z,95072.00
2018-07-21T03:29:10.417Z,95065.00
2018-07-21T03:31:41.355Z,95065.00
2018-07-21T03:34:12.359Z,95058.00
2018-07-21T03:36:43.338Z,95068.00
2018-07-21T03:39:14.410Z,95067.00
2018-07-21T03:41:45.608Z,95064.00
2018-07-21T03:44:17.119Z,95059.00
2018-07-21T03:46:48.387Z,95056.00
2018-07-21T03:49:19.456Z,95062.00
2018-07-21T03:51:50.356Z,95064.00
2018-07-21T03:54:21.459Z,95065.00
2018-07-21T03:56:52.619Z,95060.00
2018-07-21T03:59:24.581Z,95065.00
2018-07-21T04:01:55.864Z,95065.00
2018-07-21T04:04:28.575Z,95054.00
2018-07-21T04:06:59.701Z,95051.00
2018-07-21T04:09:41.699Z,95047.00
2018-07-21T04:12:12.523Z,95051.00
2018-07-21T04:14:43.440Z,95051.00
2018-07-21T04:17:22.983Z,95043.00
2018-07-21T04:19:54.226Z,95051.00
2018-07-21T04:22:25.881Z,95056.00
2018-07-21T04:24:57.074Z,95048.00
2018-07-21T04:27:28.075Z,95039.00
2018-07-21T04:29:59.052Z,95034.00
2018-07-21T04:32:30.059Z,95032.00
2018-07-21T04:35:01.142Z,95034.00
2018-07-21T04:37:32.220Z,95044.00
2018-07-21T04:40:03.794Z,95059.00
2018-07-21T04:42:34.795Z,95052.00
2018-07-21T04:45:05.735Z,95044.00
2018-07-21T04:47:36.733Z,95038.00
2018-07-21T04:50:10.152Z,95050.00
2018-07-21T04:52:41.026Z,95049.00
2018-07-21T04:55:13.387Z,95049.00
2018-07-21T04:57:44.353Z,95038.00
2018-07-21T05:00:15.618Z,95030.00
2018-07-21T05:02:47.470Z,95035.00
2018-07-21T05:05:18.423Z,95035.00
2018-07-21T05:07:49.562Z,95036.00
2018-07-21T05:10:20.487Z,95043.00
2018-07-21T05:12:51.632Z,95046.00
2018-07-21T05:15:22.750Z,95044.00
2018-07-21T05:17:53.854Z,95042.00
2018-07-21T05:20:24.724Z,95050.00
2018-07-21T05:22:55.765Z,95043.00
2018-07-21T05:25:28.347Z,95043.00
2018-07-21T05:28:00.267Z,95043.00
2018-07-21T05:30:32.080Z,95045.00
2018-07-21T05:33:03.780Z,95045.00
2018-07-21T05:35:35.774Z,95045.00
2018-07-21T05:38:07.744Z,95044.00
2018-07-21T05:40:39.864Z,95045.00
2018-07-21T05:43:12.596Z,95045.00
2018-07-21T05:45:43.952Z,95044.00
2018-07-21T05:48:14.847Z,95040.00
2018-07-21T05:50:45.811Z,95036.00
2018-07-21T05:53:16.956Z,95038.00
2018-07-21T05:55:47.891Z,95030.00
2018-07-21T05:58:18.954Z,95034.00
2018-07-21T06:00:50.119Z,95036.00
2018-07-21T06:03:21.364Z,95041.00
2018-07-21T06:05:52.360Z,95045.00
2018-07-21T06:08:26.151Z,95048.00
2018-07-21T06:10:57.164Z,95044.00
2018-07-21T06:13:28.390Z,95046.00
2018-07-21T06:15:59.581Z,95049.00
2018-07-21T06:18:30.696Z,95059.00
2018-07-21T06:21:02.191Z,95069.00
2018-07-21T06:23:34.503Z,95062.00
2018-07-21T06:26:05.502Z,95066.00
2018-07-21T06:28:36.580Z,95070.00
2018-07-21T06:31:07.744Z,95066.00
2018-07-21T06:33:38.791Z,95072.00
2018-07-21T06:36:11.226Z,95072.00
2018-07-21T06:38:42.815Z,95078.00
2018-07-21T06:41:13.903Z,95087.00
2018-07-21T06:43:44.982Z,95089.00
2018-07-21T06:46:15.994Z,95099.00
2018-07-21T06:48:46.972Z,95099.00
2018-07-21T06:51:18.931Z,95110.00
2018-07-21T06:53:49.975Z,95110.00
2018-07-21T06:56:20.952Z,95123.00
2018-07-21T06:58:52.276Z,95131.00
2018-07-21T07:01:23.585Z,95128.00
2018-07-21T07:03:54.688Z,95131.00
2018-07-21T07:06:26.343Z,95136.00
2018-07-21T07:08:57.764Z,95136.00
2018-07-21T07:11:29.118Z,95146.00
2018-07-21T07:14:00.170Z,95144.00
2018-07-21T07:16:31.553Z,95154.00
2018-07-21T07:19:02.838Z,95159.00
2018-07-21T07:21:34.024Z,95152.00
2018-07-21T07:24:04.956Z,95150.00
2018-07-21T07:26:35.932Z,95148.00
2018-07-21T07:29:07.039Z,95146.00
2018-07-21T07:31:38.083Z,95157.00
2018-07-21T07:34:09.185Z,95154.00
2018-07-21T07:36:40.317Z,95155.00
2018-07-21T07:39:12.061Z,95170.00
2018-07-21T07:41:42.887Z,95155.00
2018-07-21T07:44:13.801Z,95155.00
2018-07-21T07:46:45.326Z,95156.00
2018-07-21T07:49:16.491Z,95155.00
2018-07-21T07:51:47.373Z,95157.00
2018-07-21T07:54:19.024Z,95164.00
2018-07-21T07:56:50.088Z,95163.00
2018-07-21T07:59:21.168Z,95163.00
2018-07-21T08:01:52.736Z,95167.00
2018-07-21T08:04:23.815Z,95168.00
2018-07-21T08:06:54.848Z,95172.00
2018-07-21T08:09:26.833Z,95175.00
2018-07-21T08:11:58.032Z,95175.00
2018-07-21T08:14:29.308Z,95168.00
2018-07-21T08:17:00.323Z,95171.00
2018-07-21T08:19:31.383Z,95170.00
2018-07-21T08:22:03.564Z,95175.00
2018-07-21T08:24:34.568Z,95171.00
2018-07-21T08:27:05.380Z,95169.00
2018-07-21T08:29:36.383Z,95172.00
2018-07-21T08:32:07.695Z,95178.00
2018-07-21T08:34:38.573Z,95177.00
2018-07-21T08:37:10.026Z,95177.00
2018-07-21T08:39:41.181Z,95182.00
2018-07-21T08:42:12.397Z,95175.00
2018-07-21T08:44:43.408Z,95174.00
2018-07-21T08:47:15.065Z,95174.00
2018-07-21T08:49:47.143Z,95176.00
2018-07-21T08:52:18.047Z,95173.00
2018-07-21T08:54:50.618Z,95176.00
2018-07-21T08:57:21.707Z,95183.00
2018-07-21T08:59:52.923Z,95186.00
2018-07-21T09:02:23.967Z,95188.00
2018-07-21T09:04:55.234Z,95191.00
2018-07-21T09:07:26.034Z,95187.00
2018-07-21T09:09:57.255Z,95196.00
2018-07-21T09:12:28.551Z,95198.00
2018-07-21T09:14:59.667Z,95196.00
2018-07-21T09:17:30.696Z,95195.00
2018-07-21T09:20:01.786Z,95196.00
2018-07-21T09:22:32.759Z,95199.00
2018-07-21T09:25:04.052Z,95203.00
2018-07-21T09:27:35.185Z,95212.00
2018-07-21T09:30:06.393Z,95203.00
2018-07-21T09:32:37.623Z,95209.00
2018-07-21T09:35:11.172Z,95209.00
2018-07-21T09:37:42.152Z,95206.00
2018-07-21T09:40:13.543Z,95207.00
2018-07-21T09:42:44.432Z,95205.00
2018-07-21T09:45:17.476Z,95201.00
2018-07-21T09:47:48.469Z,95206.00
2018-07-21T09:50:19.948Z,95210.00
2018-07-21T09:52:50.940Z,95210.00
2018-07-21T09:55:21.988Z,95206.00
2018-07-21T09:57:52.980Z,95203.00
2018-07-21T10:00:29.219Z,95205.00
2018-07-21T10:03:02.356Z,95208.00
2018-07-21T10:05:33.921Z,95205.00
2018-07-21T10:08:06.697Z,95208.00
2018-07-21T10:10:38.133Z,95212.00
2018-07-21T10:13:11.165Z,95211.00
2018-07-21T10:15:41.817Z,95214.00
2018-07-21T10:18:13.138Z,95214.00
2018-07-21T10:20:44.048Z,95215.00
2018-07-21T10:23:14.869Z,95221.00
2018-07-21T10:25:51.128Z,95222.00
2018-07-21T10:28:27.115Z,95225.00
2018-07-21T10:30:58.162Z,95226.00
2018-07-21T10:33:29.109Z,95223.00
2018-07-21T10:36:00.203Z,95226.00
2018-07-21T10:38:31.111Z,95231.00
2018-07-21T10:41:03.230Z,95227.00
2018-07-21T10:43:37.868Z,95230.00
2018-07-21T10:46:09.633Z,95228.00
2018-07-21T10:48:40.686Z,95230.00
2018-07-21T10:51:11.715Z,95234.00
2018-07-21T10:53:43.082Z,95236.00
2018-07-21T10:56:14.651Z,95236.00
2018-07-21T10:58:45.863Z,95233.00
2018-07-21T11:01:16.827Z,95234.00
2018-07-21T11:03:47.787Z,95235.00
2018-07-21T11:06:19.023Z,95232.00
2018-07-21T11:08:50.185Z,95235.00
2018-07-21T11:11:21.330Z,95238.00
2018-07-21T11:13:52.888Z,95241.00
2018-07-21T11:16:24.036Z,95240.00
2018-07-21T11:18:56.066Z,95243.00
2018-07-21T11:21:27.670Z,95242.00
2018-07-21T11:23:58.721Z,95248.00
2018-07-21T11:26:29.788Z,95244.00
2018-07-21T11:29:01.104Z,95248.00
2018-07-21T11:31:32.334Z,95253.00
2018-07-21T11:34:03.627Z,95254.00
2018-07-21T11:36:34.592Z,95255.00
2018-07-21T11:39:07.667Z,95248.00
2018-07-21T11:41:38.483Z,95249.00
2018-07-21T11:44:10.331Z,95252.00
2018-07-21T11:46:41.227Z,95253.00
2018-07-21T11:49:12.613Z,95251.00
2018-07-21T11:51:43.720Z,95256.00
2018-07-21T11:54:15.105Z,95254.00
2018-07-21T11:56:46.308Z,95255.00
2018-07-21T11:59:17.444Z,95252.00
2018-07-21T12:01:48.804Z,95252.00
2018-07-21T12:04:19.782Z,95250.00
2018-07-21T12:06:50.649Z,95257.00
2018-07-21T12:09:21.605Z,95250.00
2018-07-21T12:11:52.597Z,95255.00
2018-07-21T12:14:24.080Z,95259.00
2018-07-21T12:16:55.476Z,95255.00
2018-07-21T12:19:26.824Z,95258.00
2018-07-21T12:21:57.977Z,95263.00
2018-07-21T12:24:29.190Z,95260.00
2018-07-21T12:27:01.172Z,95267.00
2018-07-21T12:29:32.164Z,95265.00
2018-07-21T12:32:04.243Z,95264.00
2018-07-21T12:34:35.889Z,95264.00
2018-07-21T12:37:07.492Z,95259.00
2018-07-21T12:39:38.475Z,95260.00
2018-07-21T12:42:09.829Z,95253.00
2018-07-21T12:44:41.906Z,95261.00
2018-07-21T12:47:13.053Z,95259.00
2018-07-21T12:49:44.119Z,95262.00
2018-07-21T12:52:15.566Z,95263.00
2018-07-21T12:54:46.967Z,95266.00
2018-07-21T12:57:18.956Z,95266.00
2018-07-21T12:59:56.284Z,95261.00
2018-07-21T13:02:30.568Z,95260.00
2018-07-21T13:05:02.224Z,95258.00
2018-07-21T13:07:34.029Z,95258.00
2018-07-21T13:10:06.896Z,95259.00
2018-07-21T13:12:38.244Z,95253.00
2018-07-21T13:15:09.659Z,95255.00
2018-07-21T13:17:40.987Z,95250.00
2018-07-21T13:20:13.973Z,95250.00
2018-07-21T13:22:45.544Z,95251.00
2018-07-21T13:25:16.696Z,95249.00
2018-07-21T13:27:47.822Z,95253.00
2018-07-21T13:30:18.835Z,95248.00
2018-07-21T13:32:49.754Z,95250.00
2018-07-21T13:35:22.893Z,95247.00
2018-07-21T13:38:02.238Z,95245.00
2018-07-21T13:40:35.040Z,95242.00
2018-07-21T13:43:07.491Z,95235.00
2018-07-21T13:45:38.710Z,95232.00
2018-07-21T13:48:10.857Z,95233.00
2018-07-21T13:50:41.842Z,95238.00
2018-07-21T13:53:13.406Z,95234.00
2018-07-21T13:55:44.420Z,95234.00
2018-07-21T13:58:15.646Z,95225.00
2018-07-21T14:00:46.916Z,95230.00
2018-07-21T14:03:17.953Z,95221.00
2018-07-21T14:05:48.971Z,95229.00
2018-07-21T14:08:20.301Z,95227.00
2018-07-21T14:10:51.744Z,95228.00
2018-07-21T14:13:22.994Z,95228.00
2018-07-21T14:15:53.867Z,95230.00
2018-07-21T14:18:24.853Z,95226.00
2018-07-21T14:20:57.109Z,95221.00
2018-07-21T14:23:29.099Z,95225.00
2018-07-21T14:26:00.773Z,95225.00
2018-07-21T14:28:32.671Z,95224.00
2018-07-21T14:31:03.721Z,95225.00
2018-07-21T14:33:34.978Z,95226.00
2018-07-21T14:36:06.180Z,95222.00
2018-07-21T14:38:37.140Z,95221.00
2018-07-21T14:41:08.190Z,95221.00
2018-07-21T14:43:39.255Z,95220.00
2018-07-21T14:46:10.369Z,95220.00
2018-07-21T14:48:41.436Z,95214.00
2018-07-21T14:51:16.417Z,95216.00
2018-07-21T14:53:49.846Z,95211.00
2018-07-21T14:56:22.169Z,95207.00
2018-07-21T14:58:53.343Z,95208.00
2018-07-21T15:01:24.542Z,95207.00
2018-07-21T15:03:55.814Z,95208.00
2018-07-21T15:06:26.838Z,95203.00
2018-07-21T15:08:58.420Z,95201.00
2018-07-21T15:11:30.215Z,95196.00
2018-07-21T15:14:02.183Z,95196.00
2018-07-21T15:16:33.896Z,95198.00
2018-07-21T15:19:05.557Z,95194.00
2018-07-21T15:21:38.877Z,95195.00
2018-07-21T15:24:11.618Z,95191.00
2018-07-21T15:26:44.348Z,95194.00
2018-07-21T15:29:17.504Z,95190.00
2018-07-21T15:31:55.099Z,95189.00
2018-07-21T15:34:28.103Z,95192.00
2018-07-21T15:36:59.407Z,95191.00
2018-07-21T15:39:31.175Z,95194.00
2018-07-21T15:42:04.463Z,95186.00
2018-07-21T15:44:36.048Z,95189.00
2018-07-21T15:47:07.624Z,95188.00
2018-07-21T15:49:38.884Z,95188.00
2018-07-21T15:52:11.621Z,95189.00
2018-07-21T15:54:43.373Z,95184.00
2018-07-21T15:57:14.999Z,95183.00
2018-07-21T15:59:46.576Z,95180.00
2018-07-21T16:02:19.101Z,95185.00
2018-07-21T16:04:50.232Z,95185.00
2018-07-21T16:07:21.667Z,95180.00
2018-07-21T16:09:53.291Z,95178.00
2018-07-21T16:12:24.728Z,95175.00
2018-07-21T16:14:56.004Z,95168.00
2018-07-21T16:17:27.228Z,95164.00
2018-07-21T16:19:58.882Z,95172.00
2018-07-21T16:22:30.450Z,95171.00
2018-07-21T16:25:03.421Z,95164.00
2018-07-21T16:27:35.070Z,95163.00
2018-07-21T16:30:06.869Z,95167.00
2018-07-21T16:32:40.588Z,95173.00
2018-07-21T16:35:14.923Z,95171.00
2018-07-21T16:37:47.314Z,95174.00
2018-07-21T16:40:19.431Z,95172.00
2018-07-21T16:42:51.011Z,95169.00
2018-07-21T16:45:22.487Z,95163.00
2018-07-21T16:47:53.900Z,95160.00
2018-07-21T16:50:25.183Z,95157.00
2018-07-21T16:52:57.457Z,95155.00
2018-07-21T16:55:29.106Z,95155.00
2018-07-21T16:58:04.452Z,95154.00
2018-07-21T17:00:36.985Z,95158.00
2018-07-21T17:03:10.073Z,95155.00
2018-07-21T17:05:41.724Z,95155.00
2018-07-21T17:08:13.407Z,95146.00
2018-07-21T17:10:45.046Z,95151.00
2018-07-21T17:13:16.969Z,95148.00
2018-07-21T17:15:48.332Z,95144.00
2018-07-21T17:18:19.643Z,95144.00
2018-07-21T17:20:51.902Z,95142.00
2018-07-21T17:23:23.512Z,95145.00
2018-07-21T17:25:55.417Z,95144.00
2018-07-21T17:28:27.006Z,95147.00
2018-07-21T17:30:58.856Z,95143.00
2018-07-21T17:33:30.759Z,95152.00
2018-07-21T17:36:01.901Z,95144.00
2018-07-21T17:38:33.615Z,95150.00
2018-07-21T17:41:05.074Z,95148.00
2018-07-21T17:43:40.939Z,95151.00
2018-07-21T17:46:19.863Z,95151.00
2018-07-21T17:48:52.642Z,95149.00
2018-07-21T17:51:24.079Z,95148.00
2018-07-21T17:54:09.340Z,95145.00
2018-07-21T17:56:41.134Z,95146.00
2018-07-21T17:59:12.680Z,95150.00
2018-07-21T18:01:44.207Z,95154.00
2018-07-21T18:04:15.880Z,95149.00
2018-07-21T18:06:46.999Z,95150.00
2018-07-21T18:09:18.456Z,95149.00
2018-07-21T18:11:50.513Z,95150.00
2018-07-21T18:14:22.087Z,95153.00
2018-07-21T18:16:53.480Z,95151.00
2018-07-21T18:19:24.787Z,95149.00
2018-07-21T18:21:56.030Z,95151.00
2018-07-21T18:24:27.467Z,95152.00
2018-07-21T18:26:59.224Z,95151.00
2018-07-21T18:29:30.588Z,95151.00
2018-07-21T18:32:03.199Z,95157.00
2018-07-21T18:34:34.520Z,95153.00
2018-07-21T18:37:05.882Z,95153.00
2018-07-21T18:39:38.036Z,95151.00
2018-07-21T18:42:09.885Z,95153.00
2018-07-21T18:44:41.255Z,95154.00
2018-07-21T18:47:12.589Z,95152.00
2018-07-21T18:49:43.960Z,95152.00
2018-07-21T18:52:15.621Z,95156.00
2018-07-21T18:54:48.384Z,95152.00
2018-07-21T18:57:19.817Z,95154.00
2018-07-21T18:59:51.022Z,95152.00
2018-07-21T19:02:22.673Z,95152.00
2018-07-21T19:04:53.998Z,95150.00
2018-07-21T19:07:25.849Z,95149.00
2018-07-21T19:09:57.355Z,95149.00
2018-07-21T19:12:33.652Z,95155.00
2018-07-21T19:15:05.992Z,95162.00
2018-07-21T19:17:37.432Z,95169.00
2018-07-21T19:20:14.091Z,95171.00
2018-07-21T19:22:45.512Z,95170.00
2018-07-21T19:25:23.818Z,95166.00
2018-07-21T19:27:55.968Z,95164.00
2018-07-21T19:30:27.435Z,95165.00
2018-07-21T19:32:59.186Z,95168.00
2018-07-21T19:35:31.983Z,95164.00
2018-07-21T19:38:04.544Z,95169.00
2018-07-21T19:40:36.092Z,95169.00
2018-07-21T19:43:08.301Z,95174.00
2018-07-21T19:45:40.662Z,95174.00
2018-07-21T19:48:13.084Z,95175.00
2018-07-21T19:50:44.458Z,95184.00
2018-07-21T19:53:16.075Z,95173.00
2018-07-21T19:55:48.213Z,95178.00
2018-07-21T19:58:19.977Z,95176.00
2018-07-21T20:00:51.344Z,95180.00
2018-07-21T20:03:22.813Z,95179.00
2018-07-21T20:06:00.298Z,95183.00
2018-07-21T20:08:32.036Z,95195.00
2018-07-21T20:11:03.471Z,95194.00
2018-07-21T20:13:34.812Z,95192.00
2018-07-21T20:16:06.603Z,95201.00
2018-07-21T20:18:38.460Z,95204.00
2018-07-21T20:21:09.684Z,95206.00
2018-07-21T20:23:41.171Z,95196.00
2018-07-21T20:26:12.427Z,95207.00
2018-07-21T20:28:44.214Z,95205.00
2018-07-21T20:31:15.986Z,95205.00
2018-07-21T20:33:47.398Z,95211.00
2018-07-21T20:36:18.556Z,95212.00
2018-07-21T20:38:49.752Z,95213.00
2018-07-21T20:41:21.491Z,95219.00
2018-07-21T20:43:53.055Z,95224.00
2018-07-21T20:46:25.062Z,95226.00
2018-07-21T20:48:56.501Z,95232.00
2018-07-21T20:51:28.212Z,95237.00
2018-07-21T20:54:00.271Z,95242.00
2018-07-21T20:56:31.772Z,95251.00
2018-07-21T20:59:03.216Z,95255.00
2018-07-21T21:01:34.642Z,95258.00
2018-07-21T21:04:06.459Z,95259.00
2018-07-21T21:06:38.458Z,95269.00
2018-07-21T21:09:11.396Z,95277.00
2018-07-21T21:11:42.876Z,95287.00
2018-07-21T21:14:14.689Z,95289.00
2018-07-21T21:16:45.976Z,95292.00
2018-07-21T21:19:17.360Z,95291.00
2018-07-21T21:21:48.993Z,95291.00
2018-07-21T21:24:20.407Z,95291.00
2018-07-21T21:26:51.745Z,95293.00
2018-07-21T21:29:23.590Z,95293.00
2018-07-21T21:31:54.847Z,95293.00
2018-07-21T21:34:26.041Z,95291.00
2018-07-21T21:36:57.579Z,95285.00
2018-07-21T21:39:28.887Z,95288.00
2018-07-21T21:42:00.190Z,95280.00
2018-07-21T21:44:33.096Z,95275.00
2018-07-21T21:47:04.407Z,95271.00
2018-07-21T21:49:35.612Z,95268.00
2018-07-21T21:52:06.883Z,95270.00
2018-07-21T21:54:38.320Z,95269.00
2018-07-21T21:57:09.746Z,95264.00
2018-07-21T21:59:41.068Z,95267.00
2018-07-21T22:02:13.038Z,95260.00
2018-07-21T22:04:44.408Z,95259.00
2018-07-21T22:07:15.740Z,95256.00
2018-07-21T22:09:47.710Z,95256.00
2018-07-21T22:12:19.027Z,95254.00
2018-07-21T22:14:50.103Z,95252.00
2018-07-21T22:17:21.340Z,95249.00
2018-07-21T22:19:53.290Z,95242.00
2018-07-21T22:22:24.333Z,95243.00
2018-07-21T22:24:55.133Z,95248.00
2018-07-21T22:27:26.002Z,95245.00
2018-07-21T22:29:57.299Z,95253.00
2018-07-21T22:32:28.212Z,95248.00
2018-07-21T22:34:59.248Z,95253.00
2018-07-21T22:37:30.446Z,95254.00
2018-07-21T22:40:02.051Z,95252.00
2018-07-21T22:42:33.174Z,95247.00
2018-07-21T22:45:04.446Z,95244.00
2018-07-21T22:47:35.418Z,95248.00
2018-07-21T22:50:07.955Z,95249.00
2018-07-21T22:52:40.253Z,95255.00
2018-07-21T22:55:14.005Z,95258.00
2018-07-21T22:57:45.003Z,95258.00
2018-07-21T23:00:16.170Z,95259.00
2018-07-21T23:02:47.325Z,95262.00
2018-07-21T23:05:18.666Z,95257.00
2018-07-21T23:07:50.108Z,95259.00
2018-07-21T23:10:21.431Z,95258.00
2018-07-21T23:12:53.146Z,95256.00
2018-07-21T23:15:24.480Z,95252.00
2018-07-21T23:17:55.502Z,95248.00
2018-07-21T23:20:31.449Z,95248.00
2018-07-21T23:23:07.707Z,95247.00
2018-07-21T23:25:39.212Z,95244.00
2018-07-21T23:28:12.662Z,95234.00
2018-07-21T23:30:43.607Z,95235.00
2018-07-21T23:33:15.129Z,95238.00
2018-07-21T23:35:46.912Z,95238.00
2018-07-21T23:38:19.287Z,95245.00
2018-07-21T23:40:50.539Z,95244.00
2018-07-21T23:43:21.835Z,95242.00
2018-07-21T23:45:53.134Z,95240.00
2018-07-21T23:48:24.270Z,95242.00
2018-07-21T23:50:55.741Z,95236.00
2018-07-21T23:53:27.479Z,95234.00
2018-07-21T23:55:59.111Z,95239.00
2018-07-21T23:58:31.142Z,95242.00
